• Join FlightAware (Why Join?)
  • Login
  • US Flag 
06:30AM EDT


 

Airport Tracker/Info


-or-


 

Live Flight TrackerFlight Track Log ✈ SWA2852 ✈ 18-Apr-2013 ✈ KMDW - KOKC

Flight Track Log - Related Links

Times and Time Zones

All times are in EDT time to prevent confusion due to time zone crossing. See the SWA2852 flight status page for this flight to view local times or setup timezone preferences in your user account.

Time Position Orientation Groundspeed Altitude Reporting Facility
EDT Latitude Longitude Course Direction KTS MPH feet Rate Location/Type
06:39PM 41.7667 -87.7667 226° Southwest 142 163 2,100  Level Chicago TRACON
06:41PM 41.7061 -87.8500 226° Southwest 167 192 6,300 2,460 Climbing Chicago Center
06:42PM 41.6553 -87.9056 219° Southwest 229 264 9,400 3,660 Climbing Chicago Center
06:43PM 41.6000 -87.9644 219° Southwest 253 291 13,900 3,960 Climbing Chicago Center
06:44PM 41.5383 -88.0311 219° Southwest 243 280 17,600 3,240 Climbing Chicago Center
06:45PM 41.4861 -88.0889 220° Southwest 248 285 20,700 2,520 Climbing Chicago Center
06:46PM 41.4308 -88.1489 219° Southwest 264 304 22,900 1,500 Climbing Chicago Center
06:47PM 41.3531 -88.2036 208° Southwest 272 313 23,800 1,380 Climbing Chicago Center
06:48PM 41.2794 -88.2369 199° South 280 322 25,800 1,380 Climbing Chicago Center
06:49PM 41.1992 -88.2736 199° South 305 351 26,700 600 Climbing Chicago Center
06:50PM 41.1058 -88.3158 199° South 350 403 27,100 1,080 Climbing Chicago Center
06:51PM 41.0061 -88.3611 199° South 377 434 29,000 1,980 Climbing Chicago Center
06:52PM 40.8881 -88.4144 199° South 377 434 31,300 2,220 Climbing Chicago Center
06:53PM 40.8033 -88.4800 210° Southwest 371 427 33,700 2,280 Climbing Chicago Center
06:54PM 40.7417 -88.5736 229° Southwest 343 395 36,100 1,740 Climbing Chicago Center
06:56PM 40.6803 -88.6611 227° Southwest 329 379 37,300 900 Climbing Chicago Center
06:57PM 40.6192 -88.7544 229° Southwest 334 384 38,000 720 Climbing Chicago Center
06:58PM 40.5539 -88.8503 228° Southwest 342 394 38,800 960 Climbing Chicago Center
06:59PM 40.4928 -88.9419 229° Southwest 334 384 40,000 540 Climbing Chicago Center
07:00PM 40.4331 -89.0342 230° Southwest 331 381 40,000  Level Chicago Center
07:01PM 40.3706 -89.1256 228° Southwest 333 383 40,000  Level Chicago Center
07:02PM 40.2958 -89.2361 228° Southwest 335 386 40,000  Level Chicago Center
07:03PM 40.2328 -89.3314 229° Southwest 341 392 40,000  Level Chicago Center
07:04PM 40.1697 -89.4214 227° Southwest 335 386 40,000  Level Chicago Center
07:05PM 40.1067 -89.5172 229° Southwest 344 396 40,000  Level Chicago Center
07:06PM 40.0439 -89.6114 229° Southwest 340 391 40,000  Level Chicago Center
07:07PM 39.9933 -89.6842 228° Southwest 339 390 40,000  Level Kansas City Center
07:08PM 39.9308 -89.7764 229° Southwest 339 390 40,000  Level Kansas City Center
07:09PM 39.8561 -89.8842 228° Southwest 335 386 40,000  Level Kansas City Center
07:10PM 39.7944 -89.9747 228° Southwest 334 384 40,000  Level Kansas City Center
07:11PM 39.7336 -90.0633 228° Southwest 330 380 40,000  Level Kansas City Center
07:12PM 39.6781 -90.1444 228° Southwest 328 377 40,000  Level Kansas City Center
07:13PM 39.6056 -90.2497 228° Southwest 328 377 40,000  Level Kansas City Center
07:14PM 39.5442 -90.3386 228° Southwest 331 381 40,000  Level Kansas City Center
07:15PM 39.4822 -90.4281 228° Southwest 334 384 40,000  Level Kansas City Center
07:16PM 39.4214 -90.5161 228° Southwest 332 382 40,000  Level Kansas City Center
07:17PM 39.3592 -90.6033 227° Southwest 332 382 40,000  Level Kansas City Center
07:18PM 39.2969 -90.6925 228° Southwest 334 384 40,000  Level Kansas City Center
07:19PM 39.2217 -90.7983 227° Southwest 335 386 40,000  Level Kansas City Center
07:20PM 39.1617 -90.8839 228° Southwest 328 377 40,000  Level Kansas City Center
07:21PM 39.0975 -90.9750 228° Southwest 339 390 40,000  Level Kansas City Center
07:22PM 39.0350 -91.0636 228° Southwest 339 390 40,000  Level Kansas City Center
07:23PM 38.9708 -91.1536 227° Southwest 342 394 40,000  Level Kansas City Center
07:24PM 38.8933 -91.2622 228° Southwest 345 397 40,000  Level Kansas City Center
07:25PM 38.8300 -91.3575 230° Southwest 350 403 40,000  Level Kansas City Center
07:26PM 38.7750 -91.4628 236° Southwest 356 410 40,000  Level Kansas City Center
07:27PM 38.7172 -91.5644 234° Southwest 354 407 40,000  Level Kansas City Center
07:28PM 38.6511 -91.6831 235° Southwest 355 409 40,000  Level Kansas City Center
07:29PM 38.5933 -91.7853 234° Southwest 354 407 40,000  Level Kansas City Center
07:30PM 38.5397 -91.8900 237° Southwest 352 405 40,000  Level Kansas City Center
07:31PM 38.4911 -92.0014 241° Southwest 356 410 40,000  Level Kansas City Center
07:32PM 38.4425 -92.1119 241° Southwest 356 410 40,000  Level Kansas City Center
07:34PM 38.3939 -92.2200 240° Southwest 353 406 40,000  Level Kansas City Center
07:35PM 38.3347 -92.3503 240° Southwest 353 406 40,000  Level Kansas City Center
07:36PM 38.2869 -92.4583 241° Southwest 352 405 40,000  Level Kansas City Center
07:37PM 38.2389 -92.5647 240° Southwest 349 402 40,000  Level Kansas City Center
07:38PM 38.1894 -92.6744 240° Southwest 349 402 40,000  Level Kansas City Center
07:39PM 38.1425 -92.7772 240° Southwest 348 400 40,000  Level Kansas City Center
07:40PM 38.0928 -92.8833 239° Southwest 349 402 40,000  Level Kansas City Center
07:41PM 38.0347 -93.0103 240° Southwest 346 398 40,000  Level Kansas City Center
07:42PM 37.9856 -93.1175 240° Southwest 350 403 40,000  Level Kansas City Center
07:43PM 37.9369 -93.2239 240° Southwest 349 402 40,000  Level Kansas City Center
07:44PM 37.8869 -93.3311 239° Southwest 352 405 40,000  Level Kansas City Center
07:45PM 37.8364 -93.4386 239° Southwest 353 406 40,000  Level Kansas City Center
07:46PM 37.7872 -93.5453 240° Southwest 353 406 40,000  Level Kansas City Center
07:47PM 37.7367 -93.6519 239° Southwest 351 404 40,000  Level Kansas City Center
07:48PM 37.6783 -93.7775 240° Southwest 346 398 40,000  Level Kansas City Center
07:49PM 37.6297 -93.8839 240° Southwest 348 400 40,000  Level Kansas City Center
07:50PM 37.5808 -93.9889 240° Southwest 347 399 40,000  Level Kansas City Center
07:51PM 37.5306 -94.0928 239° Southwest 347 399 40,000  Level Kansas City Center
07:52PM 37.4825 -94.1917 239° Southwest 347 399 40,000  Level Kansas City Center
07:53PM 37.4331 -94.2942 239° Southwest 344 396 40,000  Level Kansas City Center
07:54PM 37.3736 -94.4172 239° Southwest 344 396 40,000  Level Kansas City Center
07:55PM 37.3247 -94.5222 240° Southwest 346 398 40,000  Level Kansas City Center
07:56PM 37.2744 -94.6242 238° Southwest 344 396 40,000  Level Kansas City Center
07:57PM 37.2239 -94.7278 239° Southwest 347 399 40,000  Level Kansas City Center
07:58PM 37.1739 -94.8336 239° Southwest 351 404 40,000  Level Kansas City Center
07:59PM 37.1225 -94.9386 238° Southwest 352 405 40,000  Level Kansas City Center
08:00PM 37.0711 -95.0450 239° Southwest 355 409 40,000  Level Kansas City Center
08:01PM 37.0081 -95.1736 238° Southwest 359 413 40,000  Level Kansas City Center
08:02PM 36.9553 -95.2803 238° Southwest 362 417 40,000  Level Kansas City Center
08:03PM 36.9019 -95.3875 238° Southwest 363 418 40,000  Level Kansas City Center
08:04PM 36.8494 -95.4944 238° Southwest 363 418 40,000 -60 Level Kansas City Center
08:05PM 36.7964 -95.6003 238° Southwest 362 417 39,900 -540 Descending Kansas City Center
08:07PM 36.7444 -95.7069 239° Southwest 362 417 38,900 -960 Descending Kansas City Center
08:08PM 36.6914 -95.8111 238° Southwest 359 413 37,900 -1,080 Descending Kansas City Center
08:09PM 36.6294 -95.9344 238° Southwest 353 406 36,800 -1,020 Descending Kansas City Center
08:10PM 36.5792 -96.0358 238° Southwest 348 400 35,800 -960 Descending Kansas City Center
08:11PM 36.5283 -96.1367 238° Southwest 347 399 34,900 -1,620 Descending Kansas City Center
08:12PM 36.4778 -96.2375 238° Southwest 345 397 32,600 -2,340 Descending Kansas City Center
08:13PM 36.4286 -96.3339 238° Southwest 337 388 30,200 -2,280 Descending Kansas City Center
08:14PM 36.3817 -96.4244 237° Southwest 319 367 28,000 -2,040 Descending Kansas City Center
08:15PM 36.3281 -96.5250 237° Southwest 296 341 26,000 -1,440 Descending Kansas City Center
08:16PM 36.2656 -96.5939 222° Southwest 297 342 25,100 -1,020 Descending Kansas City Center
08:17PM 36.2036 -96.6644 223° Southwest 301 346 24,000 -1,560 Descending Kansas City Center
08:18PM 36.1458 -96.7336 224° Southwest 293 337 21,900 -1,920 Descending Kansas City Center
08:19PM 36.0950 -96.7928 223° Southwest 282 325 20,100 -1,980 Descending Kansas City Center
08:20PM 36.0319 -96.8669 224° Southwest 265 305 17,900 -2,040 Descending Kansas City Center
08:21PM 35.9758 -96.9319 223° Southwest 272 313 16,000 -2,340 Descending Kansas City Center
08:22PM 35.9131 -97.0036 223° Southwest 299 344 13,100 -2,280 Descending Kansas City Center
08:23PM 35.8503 -97.0772 224° Southwest 310 357 11,300 -1,620 Descending Kansas City Center
08:24PM 35.8000 -97.1372 224° Southwest 289 333 10,400 -1,320 Descending Fort Worth Center
08:25PM 35.7439 -97.1989 222° Southwest 265 305 9,100 -1,380 Descending Fort Worth Center
08:26PM 35.6897 -97.2628 224° Southwest 265 305 7,700 -1,200 Descending Fort Worth Center
08:27PM 35.6356 -97.3267 224° Southwest 274 315 6,700 -900 Descending Fort Worth Center
08:28PM 35.5792 -97.3881 222° Southwest 270 311 6,000 -360 Descending Fort Worth Center
08:29PM 35.5272 -97.4492 224° Southwest 262 302 6,000 -300 Level Fort Worth Center
08:30PM 35.4583 -97.4772 198° South 274 315 5,400 -840 Descending Fort Worth Center
08:31PM 35.3833 -97.4797 182° South 265 305 4,400 -720 Descending Fort Worth Center
08:32PM 35.3186 -97.4872 185° South 215 247 4,000 -600 Descending Fort Worth Center
08:33PM 35.2789 -97.5178 212° Southwest 175 201 3,200 -540 Descending Fort Worth Center
08:34PM 35.2914 -97.5661 288° West 153 176 3,000 -480 Descending Fort Worth Center
08:35PM 35.3247 -97.5942 326° Northwest 133 153 2,300 -660 Descending Fort Worth Center
08:36PM 35.3581 -97.5942 360° North 116 133 1,700 -600 Descending Fort Worth Center
08:38PM 35.3833 -97.6000 330° Northwest  Level FlightAware Approximate